sensor_id;sensor_type;location;lat;lon;timestamp;pressure;altitude;pressure_sealevel;temperature
69597;BMP180;56802;51.184;-115.558;2022-08-04T00:02:31;85816.20;;;
69597;BMP180;56802;51.184;-115.558;2022-08-04T00:05:12;85822.00;;;
69597;BMP180;56802;51.184;-115.558;2022-08-04T00:08:17;85813.80;;;
69597;BMP180;56802;51.184;-115.558;2022-08-04T00:10:55;85818.40;;;
69597;BMP180;56802;51.184;-115.558;2022-08-04T00:13:30;85813.80;;;
69597;BMP180;56802;51.184;-115.558;2022-08-04T00:16:07;85809.80;;;
69597;BMP180;56802;51.184;-115.558;2022-08-04T00:18:44;85813.40;;;
69597;BMP180;56802;51.184;-115.558;2022-08-04T00:21:18;85815.40;;;
69597;BMP180;56802;51.184;-115.558;2022-08-04T00:23:50;85806.40;;;
69597;BMP180;56802;51.184;-115.558;2022-08-04T00:26:40;85805.20;;;
69597;BMP180;56802;51.184;-115.558;2022-08-04T00:29:10;85809.80;;;
69597;BMP180;56802;51.184;-115.558;2022-08-04T00:31:42;85807.00;;;
69597;BMP180;56802;51.184;-115.558;2022-08-04T00:34:28;85805.40;;;
69597;BMP180;56802;51.184;-115.558;2022-08-04T00:36:58;85814.20;;;
69597;BMP180;56802;51.184;-115.558;2022-08-04T00:39:29;85813.00;;;
69597;BMP180;56802;51.184;-115.558;2022-08-04T00:42:10;85815.60;;;
69597;BMP180;56802;51.184;-115.558;2022-08-04T00:54:56;85795.00;;;
69597;BMP180;56802;51.184;-115.558;2022-08-04T00:58:15;85798.80;;;
69597;BMP180;56802;51.184;-115.558;2022-08-04T01:01:00;85796.40;;;
69597;BMP180;56802;51.184;-115.558;2022-08-04T01:04:01;85793.80;;;
69597;BMP180;56802;51.184;-115.558;2022-08-04T01:06:47;85796.80;;;
69597;BMP180;56802;51.184;-115.558;2022-08-04T01:09:49;85794.40;;;
69597;BMP180;56802;51.184;-115.558;2022-08-04T01:12:56;85793.80;;;
69597;BMP180;56802;51.184;-115.558;2022-08-04T01:16:06;85794.40;;;
69597;BMP180;56802;51.184;-115.558;2022-08-04T01:19:00;85790.80;;;
69597;BMP180;56802;51.184;-115.558;2022-08-04T01:27:17;85782.00;;;
69597;BMP180;56802;51.184;-115.558;2022-08-04T01:29:55;85788.80;;;
69597;BMP180;56802;51.184;-115.558;2022-08-04T01:32:36;85782.40;;;
69597;BMP180;56802;51.184;-115.558;2022-08-04T01:35:47;85791.60;;;
69597;BMP180;56802;51.184;-115.558;2022-08-04T01:38:29;85784.40;;;
69597;BMP180;56802;51.184;-115.558;2022-08-04T01:41:08;85789.00;;;
69597;BMP180;56802;51.184;-115.558;2022-08-04T01:43:46;85787.60;;;
69597;BMP180;56802;51.184;-115.558;2022-08-04T01:46:17;85781.80;;;
69597;BMP180;56802;51.184;-115.558;2022-08-04T01:48:52;85782.60;;;
69597;BMP180;56802;51.184;-115.558;2022-08-04T01:51:24;85782.20;;;
69597;BMP180;56802;51.184;-115.558;2022-08-04T01:53:53;85784.00;;;
69597;BMP180;56802;51.184;-115.558;2022-08-04T01:56:24;85782.40;;;
69597;BMP180;56802;51.184;-115.558;2022-08-04T01:59:03;85772.80;;;
69597;BMP180;56802;51.184;-115.558;2022-08-04T02:01:36;85772.40;;;
69597;BMP180;56802;51.184;-115.558;2022-08-04T02:04:05;85766.20;;;
69597;BMP180;56802;51.184;-115.558;2022-08-04T02:16:04;85768.00;;;
69597;BMP180;56802;51.184;-115.558;2022-08-04T02:21:31;85765.00;;;
69597;BMP180;56802;51.184;-115.558;2022-08-04T02:24:15;85765.40;;;
69597;BMP180;56802;51.184;-115.558;2022-08-04T02:26:51;85765.20;;;
69597;BMP180;56802;51.184;-115.558;2022-08-04T02:29:58;85766.40;;;
69597;BMP180;56802;51.184;-115.558;2022-08-04T02:32:36;85760.40;;;
69597;BMP180;56802;51.184;-115.558;2022-08-04T02:35:17;85761.40;;;
69597;BMP180;56802;51.184;-115.558;2022-08-04T02:38:06;85756.60;;;
69597;BMP180;56802;51.184;-115.558;2022-08-04T02:40:41;85756.20;;;
69597;BMP180;56802;51.184;-115.558;2022-08-04T02:43:18;85746.80;;;
69597;BMP180;56802;51.184;-115.558;2022-08-04T02:46:09;85750.00;;;
69597;BMP180;56802;51.184;-115.558;2022-08-04T02:48:47;85748.80;;;
69597;BMP180;56802;51.184;-115.558;2022-08-04T02:51:50;85747.00;;;
69597;BMP180;56802;51.184;-115.558;2022-08-04T02:54:37;85751.00;;;
69597;BMP180;56802;51.184;-115.558;2022-08-04T02:57:11;85753.80;;;
69597;BMP180;56802;51.184;-115.558;2022-08-04T03:00:09;85754.60;;;
69597;BMP180;56802;51.184;-115.558;2022-08-04T03:17:38;85749.60;;;
69597;BMP180;56802;51.184;-115.558;2022-08-04T03:57:46;85751.80;;;
69597;BMP180;56802;51.184;-115.558;2022-08-04T04:00:21;85754.40;;;
69597;BMP180;56802;51.184;-115.558;2022-08-04T04:16:57;85739.00;;;
69597;BMP180;56802;51.184;-115.558;2022-08-04T04:19:25;85741.60;;;
69597;BMP180;56802;51.184;-115.558;2022-08-04T04:22:29;85740.40;;;
69597;BMP180;56802;51.184;-115.558;2022-08-04T04:34:25;85728.60;;;
69597;BMP180;56802;51.184;-115.558;2022-08-04T04:40:19;85731.20;;;
69597;BMP180;56802;51.184;-115.558;2022-08-04T04:43:45;85735.00;;;
69597;BMP180;56802;51.184;-115.558;2022-08-04T04:49:48;85742.20;;;
69597;BMP180;56802;51.184;-115.558;2022-08-04T04:55:30;85722.00;;;
69597;BMP180;56802;51.184;-115.558;2022-08-04T04:58:01;85718.80;;;
69597;BMP180;56802;51.184;-115.558;2022-08-04T05:06:44;85714.00;;;
69597;BMP180;56802;51.184;-115.558;2022-08-04T05:12:41;85713.40;;;
69597;BMP180;56802;51.184;-115.558;2022-08-04T05:15:36;85711.80;;;
69597;BMP180;56802;51.184;-115.558;2022-08-04T05:18:11;85702.40;;;
69597;BMP180;56802;51.184;-115.558;2022-08-04T05:20:47;85708.40;;;
69597;BMP180;56802;51.184;-115.558;2022-08-04T05:23:29;85709.00;;;
69597;BMP180;56802;51.184;-115.558;2022-08-04T05:26:11;85700.40;;;
69597;BMP180;56802;51.184;-115.558;2022-08-04T05:29:06;85705.00;;;
69597;BMP180;56802;51.184;-115.558;2022-08-04T05:31:48;85703.20;;;
69597;BMP180;56802;51.184;-115.558;2022-08-04T05:34:30;85701.20;;;
69597;BMP180;56802;51.184;-115.558;2022-08-04T05:37:10;85705.60;;;
69597;BMP180;56802;51.184;-115.558;2022-08-04T05:39:51;85714.60;;;
69597;BMP180;56802;51.184;-115.558;2022-08-04T05:42:22;85710.20;;;
69597;BMP180;56802;51.184;-115.558;2022-08-04T05:44:58;85703.40;;;
69597;BMP180;56802;51.184;-115.558;2022-08-04T05:47:29;85693.40;;;
69597;BMP180;56802;51.184;-115.558;2022-08-04T05:50:04;85697.40;;;
69597;BMP180;56802;51.184;-115.558;2022-08-04T05:52:36;85700.40;;;
69597;BMP180;56802;51.184;-115.558;2022-08-04T05:55:07;85696.00;;;
69597;BMP180;56802;51.184;-115.558;2022-08-04T05:57:41;85696.20;;;
69597;BMP180;56802;51.184;-115.558;2022-08-04T06:00:12;85692.00;;;
69597;BMP180;56802;51.184;-115.558;2022-08-04T06:03:03;85690.00;;;
69597;BMP180;56802;51.184;-115.558;2022-08-04T06:05:33;85694.20;;;
69597;BMP180;56802;51.184;-115.558;2022-08-04T06:08:03;85691.00;;;
69597;BMP180;56802;51.184;-115.558;2022-08-04T06:10:43;85688.80;;;
69597;BMP180;56802;51.184;-115.558;2022-08-04T06:13:19;85681.40;;;
69597;BMP180;56802;51.184;-115.558;2022-08-04T06:16:20;85675.40;;;
69597;BMP180;56802;51.184;-115.558;2022-08-04T06:19:03;85683.80;;;
69597;BMP180;56802;51.184;-115.558;2022-08-04T06:21:55;85679.00;;;
69597;BMP180;56802;51.184;-115.558;2022-08-04T06:24:29;85673.20;;;
69597;BMP180;56802;51.184;-115.558;2022-08-04T06:27:02;85672.20;;;
69597;BMP180;56802;51.184;-115.558;2022-08-04T06:29:33;85676.40;;;
69597;BMP180;56802;51.184;-115.558;2022-08-04T06:32:19;85664.00;;;
69597;BMP180;56802;51.184;-115.558;2022-08-04T06:35:17;85664.00;;;
69597;BMP180;56802;51.184;-115.558;2022-08-04T06:37:47;85660.00;;;
69597;BMP180;56802;51.184;-115.558;2022-08-04T06:40:20;85662.80;;;
69597;BMP180;56802;51.184;-115.558;2022-08-04T06:43:06;85657.00;;;
69597;BMP180;56802;51.184;-115.558;2022-08-04T06:45:38;85656.80;;;
69597;BMP180;56802;51.184;-115.558;2022-08-04T06:48:14;85658.60;;;
69597;BMP180;56802;51.184;-115.558;2022-08-04T06:50:47;85654.40;;;
69597;BMP180;56802;51.184;-115.558;2022-08-04T06:53:37;85650.40;;;
69597;BMP180;56802;51.184;-115.558;2022-08-04T06:56:07;85651.20;;;
69597;BMP180;56802;51.184;-115.558;2022-08-04T06:58:38;85648.20;;;
69597;BMP180;56802;51.184;-115.558;2022-08-04T07:01:09;85646.60;;;
69597;BMP180;56802;51.184;-115.558;2022-08-04T07:03:39;85644.60;;;
69597;BMP180;56802;51.184;-115.558;2022-08-04T07:06:08;85645.60;;;
69597;BMP180;56802;51.184;-115.558;2022-08-04T07:08:41;85649.80;;;
69597;BMP180;56802;51.184;-115.558;2022-08-04T07:11:12;85646.60;;;
69597;BMP180;56802;51.184;-115.558;2022-08-04T07:13:41;85643.20;;;
69597;BMP180;56802;51.184;-115.558;2022-08-04T07:16:17;85639.20;;;
69597;BMP180;56802;51.184;-115.558;2022-08-04T07:18:57;85637.00;;;
69597;BMP180;56802;51.184;-115.558;2022-08-04T07:21:39;85640.20;;;
69597;BMP180;56802;51.184;-115.558;2022-08-04T07:24:34;85634.80;;;
69597;BMP180;56802;51.184;-115.558;2022-08-04T07:27:05;85633.00;;;
69597;BMP180;56802;51.184;-115.558;2022-08-04T07:29:35;85629.20;;;
69597;BMP180;56802;51.184;-115.558;2022-08-04T07:32:06;85626.60;;;
69597;BMP180;56802;51.184;-115.558;2022-08-04T07:34:37;85628.80;;;
69597;BMP180;56802;51.184;-115.558;2022-08-04T07:37:09;85618.60;;;
69597;BMP180;56802;51.184;-115.558;2022-08-04T07:39:38;85621.20;;;
69597;BMP180;56802;51.184;-115.558;2022-08-04T07:42:18;85620.20;;;
69597;BMP180;56802;51.184;-115.558;2022-08-04T07:44:48;85614.60;;;
69597;BMP180;56802;51.184;-115.558;2022-08-04T07:47:18;85613.60;;;
69597;BMP180;56802;51.184;-115.558;2022-08-04T07:49:52;85614.00;;;
69597;BMP180;56802;51.184;-115.558;2022-08-04T07:52:26;85609.60;;;
69597;BMP180;56802;51.184;-115.558;2022-08-04T07:54:56;85614.40;;;
69597;BMP180;56802;51.184;-115.558;2022-08-04T07:57:26;85603.40;;;
69597;BMP180;56802;51.184;-115.558;2022-08-04T08:00:11;85614.60;;;
69597;BMP180;56802;51.184;-115.558;2022-08-04T08:02:44;85609.20;;;
69597;BMP180;56802;51.184;-115.558;2022-08-04T08:05:18;85603.80;;;
69597;BMP180;56802;51.184;-115.558;2022-08-04T08:07:49;85607.60;;;
69597;BMP180;56802;51.184;-115.558;2022-08-04T08:10:22;85611.20;;;
69597;BMP180;56802;51.184;-115.558;2022-08-04T08:12:52;85600.60;;;
69597;BMP180;56802;51.184;-115.558;2022-08-04T08:15:23;85604.00;;;
69597;BMP180;56802;51.184;-115.558;2022-08-04T08:17:52;85605.20;;;
69597;BMP180;56802;51.184;-115.558;2022-08-04T08:20:26;85597.20;;;
69597;BMP180;56802;51.184;-115.558;2022-08-04T08:22:59;85599.80;;;
69597;BMP180;56802;51.184;-115.558;2022-08-04T08:25:32;85601.40;;;
69597;BMP180;56802;51.184;-115.558;2022-08-04T08:28:04;85598.00;;;
69597;BMP180;56802;51.184;-115.558;2022-08-04T08:30:34;85593.60;;;
69597;BMP180;56802;51.184;-115.558;2022-08-04T08:33:08;85598.00;;;
69597;BMP180;56802;51.184;-115.558;2022-08-04T08:35:48;85596.80;;;
69597;BMP180;56802;51.184;-115.558;2022-08-04T08:42:21;85595.60;;;
69597;BMP180;56802;51.184;-115.558;2022-08-04T08:48:32;85587.60;;;
69597;BMP180;56802;51.184;-115.558;2022-08-04T08:54:21;85590.40;;;
69597;BMP180;56802;51.184;-115.558;2022-08-04T08:57:28;85585.80;;;
69597;BMP180;56802;51.184;-115.558;2022-08-04T09:00:18;85574.40;;;
69597;BMP180;56802;51.184;-115.558;2022-08-04T09:03:41;85583.00;;;
69597;BMP180;56802;51.184;-115.558;2022-08-04T09:12:58;85560.80;;;
69597;BMP180;56802;51.184;-115.558;2022-08-04T09:22:51;85570.00;;;
69597;BMP180;56802;51.184;-115.558;2022-08-04T09:25:32;85568.40;;;
69597;BMP180;56802;51.184;-115.558;2022-08-04T09:28:23;85563.80;;;
69597;BMP180;56802;51.184;-115.558;2022-08-04T09:31:32;85564.20;;;
69597;BMP180;56802;51.184;-115.558;2022-08-04T09:38:19;85562.80;;;
69597;BMP180;56802;51.184;-115.558;2022-08-04T09:41:35;85564.80;;;
69597;BMP180;56802;51.184;-115.558;2022-08-04T09:44:55;85559.00;;;
69597;BMP180;56802;51.184;-115.558;2022-08-04T09:47:56;85557.80;;;
69597;BMP180;56802;51.184;-115.558;2022-08-04T09:50:41;85554.60;;;
69597;BMP180;56802;51.184;-115.558;2022-08-04T09:53:49;85555.40;;;
69597;BMP180;56802;51.184;-115.558;2022-08-04T09:56:40;85555.20;;;
69597;BMP180;56802;51.184;-115.558;2022-08-04T09:59:42;85554.40;;;
69597;BMP180;56802;51.184;-115.558;2022-08-04T10:02:18;85545.60;;;
69597;BMP180;56802;51.184;-115.558;2022-08-04T10:04:50;85539.60;;;
69597;BMP180;56802;51.184;-115.558;2022-08-04T10:11:32;85537.20;;;
69597;BMP180;56802;51.184;-115.558;2022-08-04T10:26:50;85521.00;;;
69597;BMP180;56802;51.184;-115.558;2022-08-04T10:29:48;85529.80;;;
69597;BMP180;56802;51.184;-115.558;2022-08-04T10:32:28;85513.20;;;
69597;BMP180;56802;51.184;-115.558;2022-08-04T10:35:16;85511.20;;;
69597;BMP180;56802;51.184;-115.558;2022-08-04T10:38:18;85517.00;;;
69597;BMP180;56802;51.184;-115.558;2022-08-04T10:41:11;85514.60;;;
69597;BMP180;56802;51.184;-115.558;2022-08-04T10:46:31;85497.60;;;
69597;BMP180;56802;51.184;-115.558;2022-08-04T10:49:36;85494.00;;;
69597;BMP180;56802;51.184;-115.558;2022-08-04T10:52:37;85499.60;;;
69597;BMP180;56802;51.184;-115.558;2022-08-04T10:55:40;85487.60;;;
69597;BMP180;56802;51.184;-115.558;2022-08-04T10:58:57;85493.00;;;
69597;BMP180;56802;51.184;-115.558;2022-08-04T11:01:39;85486.00;;;
69597;BMP180;56802;51.184;-115.558;2022-08-04T11:07:47;85488.80;;;
69597;BMP180;56802;51.184;-115.558;2022-08-04T11:10:23;85483.40;;;
69597;BMP180;56802;51.184;-115.558;2022-08-04T11:13:00;85482.40;;;
69597;BMP180;56802;51.184;-115.558;2022-08-04T11:15:40;85487.40;;;
69597;BMP180;56802;51.184;-115.558;2022-08-04T11:18:40;85483.20;;;
69597;BMP180;56802;51.184;-115.558;2022-08-04T11:21:25;85485.40;;;
69597;BMP180;56802;51.184;-115.558;2022-08-04T11:24:13;85485.40;;;
69597;BMP180;56802;51.184;-115.558;2022-08-04T11:30:04;85486.20;;;
69597;BMP180;56802;51.184;-115.558;2022-08-04T11:35:56;85487.60;;;
69597;BMP180;56802;51.184;-115.558;2022-08-04T11:41:33;85491.40;;;
69597;BMP180;56802;51.184;-115.558;2022-08-04T11:44:06;85483.80;;;
69597;BMP180;56802;51.184;-115.558;2022-08-04T11:46:50;85488.20;;;
69597;BMP180;56802;51.184;-115.558;2022-08-04T11:49:43;85486.00;;;
69597;BMP180;56802;51.184;-115.558;2022-08-04T11:52:26;85483.60;;;
69597;BMP180;56802;51.184;-115.558;2022-08-04T11:54:56;85479.40;;;
69597;BMP180;56802;51.184;-115.558;2022-08-04T11:57:27;85485.60;;;
69597;BMP180;56802;51.184;-115.558;2022-08-04T12:00:08;85489.20;;;
69597;BMP180;56802;51.184;-115.558;2022-08-04T12:03:00;85487.60;;;
69597;BMP180;56802;51.184;-115.558;2022-08-04T12:06:01;85490.60;;;
69597;BMP180;56802;51.184;-115.558;2022-08-04T12:09:16;85485.80;;;
69597;BMP180;56802;51.184;-115.558;2022-08-04T12:12:24;85487.20;;;
69597;BMP180;56802;51.184;-115.558;2022-08-04T12:15:18;85484.40;;;
69597;BMP180;56802;51.184;-115.558;2022-08-04T12:18:20;85482.60;;;
69597;BMP180;56802;51.184;-115.558;2022-08-04T12:21:06;85479.60;;;
69597;BMP180;56802;51.184;-115.558;2022-08-04T12:23:42;85479.80;;;
69597;BMP180;56802;51.184;-115.558;2022-08-04T12:26:27;85481.60;;;
69597;BMP180;56802;51.184;-115.558;2022-08-04T12:29:00;85488.00;;;
69597;BMP180;56802;51.184;-115.558;2022-08-04T12:32:19;85492.60;;;
69597;BMP180;56802;51.184;-115.558;2022-08-04T12:38:04;85492.20;;;
69597;BMP180;56802;51.184;-115.558;2022-08-04T12:40:48;85498.80;;;
69597;BMP180;56802;51.184;-115.558;2022-08-04T12:43:40;85496.40;;;
69597;BMP180;56802;51.184;-115.558;2022-08-04T12:46:23;85503.00;;;
69597;BMP180;56802;51.184;-115.558;2022-08-04T12:49:01;85504.40;;;
69597;BMP180;56802;51.184;-115.558;2022-08-04T12:51:39;85512.60;;;
69597;BMP180;56802;51.184;-115.558;2022-08-04T12:54:32;85514.80;;;
69597;BMP180;56802;51.184;-115.558;2022-08-04T12:57:06;85529.80;;;
69597;BMP180;56802;51.184;-115.558;2022-08-04T12:59:54;85536.60;;;
69597;BMP180;56802;51.184;-115.558;2022-08-04T13:02:33;85540.80;;;
69597;BMP180;56802;51.184;-115.558;2022-08-04T13:05:06;85553.00;;;
69597;BMP180;56802;51.184;-115.558;2022-08-04T13:07:49;85560.40;;;
69597;BMP180;56802;51.184;-115.558;2022-08-04T13:10:25;85561.60;;;
69597;BMP180;56802;51.184;-115.558;2022-08-04T13:13:00;85568.60;;;
69597;BMP180;56802;51.184;-115.558;2022-08-04T13:15:30;85568.60;;;
69597;BMP180;56802;51.184;-115.558;2022-08-04T13:18:21;85565.00;;;
69597;BMP180;56802;51.184;-115.558;2022-08-04T13:21:24;85583.20;;;
69597;BMP180;56802;51.184;-115.558;2022-08-04T13:24:16;85590.00;;;
69597;BMP180;56802;51.184;-115.558;2022-08-04T13:27:02;85591.40;;;
69597;BMP180;56802;51.184;-115.558;2022-08-04T13:29:45;85597.60;;;
69597;BMP180;56802;51.184;-115.558;2022-08-04T13:32:30;85603.20;;;
69597;BMP180;56802;51.184;-115.558;2022-08-04T13:35:02;85612.00;;;
69597;BMP180;56802;51.184;-115.558;2022-08-04T13:37:38;85619.00;;;
69597;BMP180;56802;51.184;-115.558;2022-08-04T13:40:13;85627.20;;;
69597;BMP180;56802;51.184;-115.558;2022-08-04T13:42:47;85636.60;;;
69597;BMP180;56802;51.184;-115.558;2022-08-04T13:45:23;85644.40;;;
69597;BMP180;56802;51.184;-115.558;2022-08-04T13:48:02;85647.80;;;
69597;BMP180;56802;51.184;-115.558;2022-08-04T13:50:53;85661.20;;;
69597;BMP180;56802;51.184;-115.558;2022-08-04T13:53:22;85665.00;;;
69597;BMP180;56802;51.184;-115.558;2022-08-04T13:55:59;85670.60;;;
69597;BMP180;56802;51.184;-115.558;2022-08-04T13:58:33;85682.40;;;
69597;BMP180;56802;51.184;-115.558;2022-08-04T14:01:22;85688.60;;;
69597;BMP180;56802;51.184;-115.558;2022-08-04T14:04:21;85695.80;;;
69597;BMP180;56802;51.184;-115.558;2022-08-04T14:06:58;85692.40;;;
69597;BMP180;56802;51.184;-115.558;2022-08-04T14:09:32;85701.20;;;
69597;BMP180;56802;51.184;-115.558;2022-08-04T14:12:13;85699.20;;;
69597;BMP180;56802;51.184;-115.558;2022-08-04T14:15:05;85703.60;;;
69597;BMP180;56802;51.184;-115.558;2022-08-04T14:17:34;85702.80;;;
69597;BMP180;56802;51.184;-115.558;2022-08-04T14:20:04;85706.60;;;
69597;BMP180;56802;51.184;-115.558;2022-08-04T14:22:36;85705.60;;;
69597;BMP180;56802;51.184;-115.558;2022-08-04T14:25:14;85707.80;;;
69597;BMP180;56802;51.184;-115.558;2022-08-04T14:27:52;85711.00;;;
69597;BMP180;56802;51.184;-115.558;2022-08-04T14:30:32;85716.40;;;
69597;BMP180;56802;51.184;-115.558;2022-08-04T14:33:10;85714.60;;;
69597;BMP180;56802;51.184;-115.558;2022-08-04T14:35:59;85721.00;;;
69597;BMP180;56802;51.184;-115.558;2022-08-04T14:38:48;85720.80;;;
69597;BMP180;56802;51.184;-115.558;2022-08-04T14:41:26;85725.00;;;
69597;BMP180;56802;51.184;-115.558;2022-08-04T14:43:59;85721.60;;;
69597;BMP180;56802;51.184;-115.558;2022-08-04T14:46:33;85729.20;;;
69597;BMP180;56802;51.184;-115.558;2022-08-04T14:49:17;85737.20;;;
69597;BMP180;56802;51.184;-115.558;2022-08-04T14:51:54;85745.20;;;
69597;BMP180;56802;51.184;-115.558;2022-08-04T14:54:30;85741.40;;;
69597;BMP180;56802;51.184;-115.558;2022-08-04T14:57:07;85734.20;;;
69597;BMP180;56802;51.184;-115.558;2022-08-04T14:59:46;85734.20;;;
69597;BMP180;56802;51.184;-115.558;2022-08-04T15:02:29;85738.60;;;
69597;BMP180;56802;51.184;-115.558;2022-08-04T15:05:02;85738.40;;;
69597;BMP180;56802;51.184;-115.558;2022-08-04T15:07:52;85743.00;;;
69597;BMP180;56802;51.184;-115.558;2022-08-04T15:10:21;85752.20;;;
69597;BMP180;56802;51.184;-115.558;2022-08-04T15:12:51;85750.00;;;
69597;BMP180;56802;51.184;-115.558;2022-08-04T15:15:22;85748.20;;;
69597;BMP180;56802;51.184;-115.558;2022-08-04T15:18:10;85742.80;;;
69597;BMP180;56802;51.184;-115.558;2022-08-04T15:20:40;85745.20;;;
69597;BMP180;56802;51.184;-115.558;2022-08-04T15:23:12;85760.80;;;
69597;BMP180;56802;51.184;-115.558;2022-08-04T15:25:54;85765.20;;;
69597;BMP180;56802;51.184;-115.558;2022-08-04T15:28:26;85761.20;;;
69597;BMP180;56802;51.184;-115.558;2022-08-04T15:31:02;85767.40;;;
69597;BMP180;56802;51.184;-115.558;2022-08-04T15:33:54;85769.80;;;
69597;BMP180;56802;51.184;-115.558;2022-08-04T15:36:45;85763.60;;;
69597;BMP180;56802;51.184;-115.558;2022-08-04T15:39:57;85760.00;;;
69597;BMP180;56802;51.184;-115.558;2022-08-04T15:45:53;85750.40;;;
69597;BMP180;56802;51.184;-115.558;2022-08-04T15:48:44;85766.40;;;
69597;BMP180;56802;51.184;-115.558;2022-08-04T15:51:24;85757.60;;;
69597;BMP180;56802;51.184;-115.558;2022-08-04T15:56:49;85759.20;;;
69597;BMP180;56802;51.184;-115.558;2022-08-04T16:00:06;85757.40;;;
69597;BMP180;56802;51.184;-115.558;2022-08-04T16:02:42;85750.00;;;
69597;BMP180;56802;51.184;-115.558;2022-08-04T16:07:59;85741.40;;;
69597;BMP180;56802;51.184;-115.558;2022-08-04T16:13:14;85741.00;;;
69597;BMP180;56802;51.184;-115.558;2022-08-04T16:15:47;85741.80;;;
69597;BMP180;56802;51.184;-115.558;2022-08-04T16:21:04;85740.60;;;
69597;BMP180;56802;51.184;-115.558;2022-08-04T16:29:39;85745.00;;;
69597;BMP180;56802;51.184;-115.558;2022-08-04T16:32:21;85751.60;;;
69597;BMP180;56802;51.184;-115.558;2022-08-04T16:35:00;85753.20;;;
69597;BMP180;56802;51.184;-115.558;2022-08-04T16:37:35;85749.60;;;
69597;BMP180;56802;51.184;-115.558;2022-08-04T16:40:35;85751.40;;;
69597;BMP180;56802;51.184;-115.558;2022-08-04T16:43:16;85746.00;;;
69597;BMP180;56802;51.184;-115.558;2022-08-04T16:45:59;85750.20;;;
69597;BMP180;56802;51.184;-115.558;2022-08-04T16:48:38;85747.80;;;
69597;BMP180;56802;51.184;-115.558;2022-08-04T16:51:11;85747.20;;;
69597;BMP180;56802;51.184;-115.558;2022-08-04T16:53:45;85746.40;;;
69597;BMP180;56802;51.184;-115.558;2022-08-04T16:56:33;85749.40;;;
69597;BMP180;56802;51.184;-115.558;2022-08-04T16:59:11;85747.00;;;
69597;BMP180;56802;51.184;-115.558;2022-08-04T17:01:49;85748.60;;;
69597;BMP180;56802;51.184;-115.558;2022-08-04T17:04:39;85750.60;;;
69597;BMP180;56802;51.184;-115.558;2022-08-04T17:07:08;85758.60;;;
69597;BMP180;56802;51.184;-115.558;2022-08-04T17:09:49;85756.60;;;
69597;BMP180;56802;51.184;-115.558;2022-08-04T17:12:19;85755.80;;;
69597;BMP180;56802;51.184;-115.558;2022-08-04T17:14:56;85755.80;;;
69597;BMP180;56802;51.184;-115.558;2022-08-04T17:17:26;85751.80;;;
69597;BMP180;56802;51.184;-115.558;2022-08-04T17:20:16;85745.60;;;
69597;BMP180;56802;51.184;-115.558;2022-08-04T17:23:41;85739.40;;;
69597;BMP180;56802;51.184;-115.558;2022-08-04T17:26:37;85745.20;;;
69597;BMP180;56802;51.184;-115.558;2022-08-04T17:29:08;85747.80;;;
69597;BMP180;56802;51.184;-115.558;2022-08-04T17:31:38;85747.20;;;
69597;BMP180;56802;51.184;-115.558;2022-08-04T17:34:16;85740.00;;;
69597;BMP180;56802;51.184;-115.558;2022-08-04T17:36:52;85738.40;;;
69597;BMP180;56802;51.184;-115.558;2022-08-04T17:39:42;85739.60;;;
69597;BMP180;56802;51.184;-115.558;2022-08-04T17:42:29;85741.60;;;
69597;BMP180;56802;51.184;-115.558;2022-08-04T17:45:17;85732.60;;;
69597;BMP180;56802;51.184;-115.558;2022-08-04T17:48:19;85737.00;;;
69597;BMP180;56802;51.184;-115.558;2022-08-04T17:50:51;85734.00;;;
69597;BMP180;56802;51.184;-115.558;2022-08-04T17:53:32;85737.60;;;
69597;BMP180;56802;51.184;-115.558;2022-08-04T17:56:37;85748.80;;;
69597;BMP180;56802;51.184;-115.558;2022-08-04T17:59:27;85745.40;;;
69597;BMP180;56802;51.184;-115.558;2022-08-04T18:02:26;85746.80;;;
69597;BMP180;56802;51.184;-115.558;2022-08-04T18:05:07;85747.20;;;
69597;BMP180;56802;51.184;-115.558;2022-08-04T18:07:42;85757.40;;;
69597;BMP180;56802;51.184;-115.558;2022-08-04T18:10:42;85749.80;;;
69597;BMP180;56802;51.184;-115.558;2022-08-04T18:13:25;85741.00;;;
69597;BMP180;56802;51.184;-115.558;2022-08-04T18:16:05;85745.00;;;
69597;BMP180;56802;51.184;-115.558;2022-08-04T18:19:15;85745.20;;;
69597;BMP180;56802;51.184;-115.558;2022-08-04T18:21:47;85740.00;;;
69597;BMP180;56802;51.184;-115.558;2022-08-04T18:24:31;85736.60;;;
69597;BMP180;56802;51.184;-115.558;2022-08-04T18:27:27;85731.80;;;
69597;BMP180;56802;51.184;-115.558;2022-08-04T18:29:57;85717.00;;;
69597;BMP180;56802;51.184;-115.558;2022-08-04T18:32:47;85724.00;;;
69597;BMP180;56802;51.184;-115.558;2022-08-04T18:35:37;85715.40;;;
69597;BMP180;56802;51.184;-115.558;2022-08-04T18:38:26;85726.00;;;
69597;BMP180;56802;51.184;-115.558;2022-08-04T18:40:56;85725.80;;;
69597;BMP180;56802;51.184;-115.558;2022-08-04T18:43:26;85725.40;;;
69597;BMP180;56802;51.184;-115.558;2022-08-04T18:46:07;85734.00;;;
69597;BMP180;56802;51.184;-115.558;2022-08-04T18:48:41;85733.60;;;
69597;BMP180;56802;51.184;-115.558;2022-08-04T18:51:19;85737.60;;;
69597;BMP180;56802;51.184;-115.558;2022-08-04T18:53:57;85743.80;;;
69597;BMP180;56802;51.184;-115.558;2022-08-04T18:56:29;85747.80;;;
69597;BMP180;56802;51.184;-115.558;2022-08-04T18:59:01;85750.00;;;
69597;BMP180;56802;51.184;-115.558;2022-08-04T19:01:31;85760.20;;;
69597;BMP180;56802;51.184;-115.558;2022-08-04T19:04:21;85750.20;;;
69597;BMP180;56802;51.184;-115.558;2022-08-04T19:07:07;85747.20;;;
69597;BMP180;56802;51.184;-115.558;2022-08-04T19:09:57;85744.40;;;
69597;BMP180;56802;51.184;-115.558;2022-08-04T19:12:27;85749.60;;;
69597;BMP180;56802;51.184;-115.558;2022-08-04T19:14:57;85751.00;;;
69597;BMP180;56802;51.184;-115.558;2022-08-04T19:17:39;85745.20;;;
69597;BMP180;56802;51.184;-115.558;2022-08-04T19:20:25;85746.60;;;
69597;BMP180;56802;51.184;-115.558;2022-08-04T19:22:56;85756.80;;;
69597;BMP180;56802;51.184;-115.558;2022-08-04T19:25:46;85750.80;;;
69597;BMP180;56802;51.184;-115.558;2022-08-04T19:28:34;85746.20;;;